Time;durP1;ratioP1;P1;durP2;ratioP2;P2;SDS_P1;SDS_P2;PMS_P1;PMS_P2;Temp;Humidity;BMP_temperature;BMP_pressure;BME280_temperature;BME280_humidity;BME280_pressure;Samples;Min_cycle;Max_cycle;Signal;HPM_P1;HPM_P2
2022/06/01 00:00:56;;;;;;;12.48;11.07;;;11.70;99.90;;;;;;5008734;28;20061;-67
2022/06/01 00:03:23;;;;;;;16.15;12.20;;;11.70;99.90;;;;;;5010975;28;20046;-67
2022/06/01 00:05:53;;;;;;;14.98;11.45;;;11.60;99.90;;;;;;5007477;28;20056;-67
2022/06/01 00:08:23;;;;;;;14.55;11.70;;;11.70;99.90;;;;;;5008208;28;20078;-67
2022/06/01 00:10:50;;;;;;;12.55;11.25;;;11.60;99.90;;;;;;5023137;28;20490;-67
2022/06/01 00:13:16;;;;;;;12.93;11.57;;;11.60;99.90;;;;;;4999727;28;20046;-67
2022/06/01 00:15:42;;;;;;;12.88;11.48;;;11.50;99.90;;;;;;5024222;28;20048;-67
2022/06/01 00:18:08;;;;;;;12.55;11.30;;;11.50;99.90;;;;;;5002744;28;20038;-67
2022/06/01 00:20:35;;;;;;;11.75;10.63;;;11.50;99.90;;;;;;5007297;28;20506;-67
2022/06/01 00:23:01;;;;;;;12.23;10.80;;;11.60;99.90;;;;;;5010366;28;20123;-67
2022/06/01 00:25:27;;;;;;;14.07;10.70;;;11.50;99.90;;;;;;5027567;28;20045;-67
2022/06/01 00:27:53;;;;;;;11.85;10.27;;;11.50;99.90;;;;;;5022131;28;20597;-67
2022/06/01 00:30:20;;;;;;;12.73;11.43;;;11.40;99.90;;;;;;5026620;28;20156;-67
2022/06/01 00:32:46;;;;;;;11.20;9.95;;;11.30;99.90;;;;;;5023121;28;20049;-67
2022/06/01 00:35:14;;;;;;;17.13;12.48;;;11.10;99.90;;;;;;5044772;28;20045;-67
2022/06/01 00:37:39;;;;;;;15.32;13.20;;;11.20;99.90;;;;;;5030036;28;20091;-67
2022/06/01 00:40:07;;;;;;;16.85;12.93;;;11.20;99.90;;;;;;5007667;28;20049;-67
2022/06/01 00:42:35;;;;;;;13.57;12.18;;;11.10;99.90;;;;;;5032467;28;20045;-67
2022/06/01 00:45:01;;;;;;;14.57;12.90;;;11.20;99.90;;;;;;5031679;28;20037;-67
2022/06/01 00:47:28;;;;;;;16.13;11.82;;;11.10;99.90;;;;;;5025067;28;20516;-67
2022/06/01 00:50:26;;;;;;;14.13;11.88;;;11.10;99.90;;;;;;5044006;28;20533;-67
2022/06/01 00:53:03;;;;;;;16.70;13.13;;;11.00;99.90;;;;;;5042840;28;20088;-67
2022/06/01 00:55:32;;;;;;;14.13;12.32;;;11.00;99.90;;;;;;5026168;28;20053;-67
2022/06/01 00:58:08;;;;;;;14.65;12.38;;;11.10;99.90;;;;;;5024266;28;20041;-67
2022/06/01 01:00:38;;;;;;;15.55;13.43;;;11.10;99.90;;;;;;5029648;28;20057;-67
2022/06/01 01:03:06;;;;;;;13.77;11.95;;;10.90;99.90;;;;;;5045860;28;20045;-67
2022/06/01 01:05:33;;;;;;;14.05;12.32;;;11.00;99.90;;;;;;5047943;28;20056;-67
2022/06/01 01:08:02;;;;;;;14.32;12.73;;;10.90;99.90;;;;;;5047819;28;20041;-67
2022/06/01 01:10:28;;;;;;;14.30;12.55;;;10.90;99.90;;;;;;5049841;28;20093;-67
2022/06/01 01:12:59;;;;;;;15.18;13.20;;;10.90;99.90;;;;;;5046510;28;20076;-67
2022/06/01 01:16:01;;;;;;;13.75;12.35;;;11.10;99.90;;;;;;5025797;28;20101;-67
2022/06/01 01:18:31;;;;;;;15.70;13.48;;;11.00;99.90;;;;;;4995069;28;20054;-67
2022/06/01 01:21:18;;;;;;;15.70;14.00;;;11.00;99.90;;;;;;5005892;28;20174;-67
2022/06/01 01:24:02;;;;;;;19.08;15.23;;;10.90;99.90;;;;;;5005065;28;20061;-67
2022/06/01 01:26:28;;;;;;;15.18;13.57;;;10.90;99.90;;;;;;5040578;28;20512;-67
2022/06/01 01:28:54;;;;;;;19.60;15.15;;;10.80;99.90;;;;;;5025523;28;20128;-67
2022/06/01 01:31:24;;;;;;;20.45;16.83;;;10.80;99.90;;;;;;5027588;28;20042;-67
2022/06/01 01:33:52;;;;;;;18.88;15.35;;;10.90;99.90;;;;;;5024217;28;20050;-67
2022/06/01 01:36:23;;;;;;;19.35;16.85;;;10.80;99.90;;;;;;5024543;28;20107;-67
2022/06/01 01:38:51;;;;;;;19.60;16.70;;;10.90;99.90;;;;;;5010912;28;20092;-67
2022/06/01 01:41:31;;;;;;;21.42;16.05;;;10.80;99.90;;;;;;5024162;28;20057;-67
2022/06/01 01:43:59;;;;;;;20.13;17.90;;;10.70;99.90;;;;;;5008403;28;20168;-67
2022/06/01 01:46:27;;;;;;;19.10;16.63;;;10.50;99.90;;;;;;5001711;28;20054;-67
2022/06/01 01:48:53;;;;;;;20.23;17.60;;;10.80;99.90;;;;;;5007728;28;20125;-67
2022/06/01 01:51:21;;;;;;;20.00;17.23;;;10.70;99.90;;;;;;5009001;28;20057;-67
2022/06/01 01:53:47;;;;;;;20.55;18.13;;;10.60;99.90;;;;;;5063039;28;20481;-67
2022/06/01 01:56:38;;;;;;;19.75;17.27;;;10.60;99.90;;;;;;5026978;28;20048;-67
2022/06/01 01:59:24;;;;;;;20.50;18.17;;;10.60;99.90;;;;;;5029043;28;20079;-67
2022/06/01 02:02:13;;;;;;;19.83;17.00;;;10.60;99.90;;;;;;5024365;28;20132;-67
2022/06/01 02:08:21;;;;;;;22.08;18.02;;;10.50;99.90;;;;;;5011507;28;20045;-67
2022/06/01 02:13:33;;;;;;;20.85;17.38;;;10.40;99.90;;;;;;5038783;28;20075;-67
2022/06/01 02:16:00;;;;;;;24.55;17.48;;;10.30;99.90;;;;;;5041031;28;20494;-67
2022/06/01 02:18:34;;;;;;;21.58;17.75;;;10.30;99.90;;;;;;5029178;28;20041;-67
2022/06/01 02:21:09;;;;;;;22.70;18.58;;;10.30;99.90;;;;;;5027385;28;20490;-67
2022/06/01 02:23:36;;;;;;;19.98;17.83;;;10.40;99.90;;;;;;5043059;28;20535;-67
2022/06/01 02:26:02;;;;;;;22.52;19.75;;;10.30;99.90;;;;;;5045807;28;20114;-67
2022/06/01 02:28:29;;;;;;;20.77;18.67;;;10.20;99.90;;;;;;5027753;28;20091;-67
2022/06/01 02:30:56;;;;;;;22.65;19.08;;;10.30;99.90;;;;;;5031005;28;20379;-67
2022/06/01 02:33:27;;;;;;;21.15;18.95;;;10.20;99.90;;;;;;5033051;28;20052;-67
2022/06/01 02:35:57;;;;;;;20.70;18.50;;;10.20;99.90;;;;;;5040891;28;20057;-67
2022/06/01 02:38:41;;;;;;;24.73;20.42;;;10.10;99.90;;;;;;5027064;28;20076;-67
2022/06/01 02:42:25;;;;;;;22.67;18.50;;;10.10;99.90;;;;;;5030759;28;20077;-67
2022/06/01 02:43:54;;;;;;;21.73;18.95;;;10.20;99.90;;;;;;5036657;28;20041;-67
2022/06/01 02:46:21;;;;;;;22.08;19.67;;;10.20;99.90;;;;;;5028138;28;20060;-67
2022/06/01 02:48:46;;;;;;;25.95;20.33;;;10.10;99.90;;;;;;5027567;28;20045;-67
2022/06/01 02:51:12;;;;;;;21.10;18.80;;;10.10;99.90;;;;;;5025953;28;20450;-67
2022/06/01 02:53:38;;;;;;;23.80;20.55;;;10.10;99.90;;;;;;5028051;28;20104;-67
2022/06/01 02:56:05;;;;;;;23.17;20.42;;;10.30;99.90;;;;;;5023020;28;20045;-67
2022/06/01 02:58:30;;;;;;;22.17;19.35;;;10.10;99.90;;;;;;5023825;28;20097;-67
2022/06/01 03:00:58;;;;;;;23.98;20.30;;;10.10;99.90;;;;;;5029229;28;20076;-67
2022/06/01 03:03:25;;;;;;;22.75;19.90;;;10.10;99.90;;;;;;5025149;28;20049;-67
2022/06/01 03:05:51;;;;;;;24.67;21.33;;;10.20;99.90;;;;;;5045911;28;20049;-67
2022/06/01 03:08:16;;;;;;;24.88;19.80;;;10.00;99.90;;;;;;5027497;28;20049;-67
2022/06/01 03:10:44;;;;;;;23.60;21.10;;;10.10;99.90;;;;;;5043790;28;20049;-67
2022/06/01 03:13:10;;;;;;;23.25;20.70;;;10.30;99.90;;;;;;5048250;28;20037;-67
2022/06/01 03:15:37;;;;;;;26.27;21.73;;;10.20;99.90;;;;;;5028114;28;20055;-67
2022/06/01 03:18:03;;;;;;;23.05;20.67;;;10.20;99.90;;;;;;5033455;28;20048;-67
2022/06/01 03:20:29;;;;;;;24.48;20.88;;;10.20;99.90;;;;;;5029489;28;20057;-68
2022/06/01 03:22:59;;;;;;;24.88;21.98;;;10.30;99.90;;;;;;5027970;28;20121;-67
2022/06/01 03:25:26;;;;;;;24.20;20.83;;;10.20;99.90;;;;;;5023017;28;20418;-67
2022/06/01 03:27:54;;;;;;;28.25;21.90;;;10.20;99.90;;;;;;5051312;28;20045;-67
2022/06/01 03:30:20;;;;;;;25.27;20.95;;;10.20;99.90;;;;;;5029805;28;20053;-67
2022/06/01 03:32:47;;;;;;;25.67;23.02;;;10.30;99.90;;;;;;5023955;28;20111;-67
2022/06/01 03:35:15;;;;;;;23.98;21.48;;;10.30;99.90;;;;;;5044222;28;20057;-67
2022/06/01 03:37:41;;;;;;;25.35;22.65;;;10.30;99.90;;;;;;5045340;28;20604;-67
2022/06/01 03:40:07;;;;;;;24.48;21.90;;;10.30;99.90;;;;;;5028064;28;20103;-67
2022/06/01 03:42:34;;;;;;;22.67;20.35;;;10.40;99.90;;;;;;5029198;28;20045;-67
2022/06/01 03:47:45;;;;;;;25.63;23.00;;;10.40;99.90;;;;;;5030943;28;20045;-67
2022/06/01 03:50:11;;;;;;;25.90;22.90;;;10.60;99.90;;;;;;5031262;28;20535;-67
2022/06/01 03:52:38;;;;;;;26.58;23.70;;;10.50;99.90;;;;;;5027196;28;20037;-67
2022/06/01 03:55:08;;;;;;;29.85;23.88;;;10.50;99.90;;;;;;5025586;28;20037;-67
2022/06/01 03:57:35;;;;;;;26.77;23.52;;;10.50;99.90;;;;;;5029093;28;20049;-67
2022/06/01 04:00:01;;;;;;;29.65;24.23;;;10.40;99.90;;;;;;5028888;28;20034;-67
2022/06/01 04:02:27;;;;;;;27.92;23.92;;;10.50;99.90;;;;;;5031058;28;20041;-67
2022/06/01 04:04:53;;;;;;;29.60;25.25;;;10.50;99.90;;;;;;5030808;28;20513;-67
2022/06/01 04:07:18;;;;;;;28.25;23.92;;;10.50;99.90;;;;;;5011581;28;20128;-67
2022/06/01 04:09:45;;;;;;;27.38;23.73;;;10.50;99.90;;;;;;5045566;28;20128;-67
2022/06/01 04:12:11;;;;;;;28.80;25.70;;;10.60;99.90;;;;;;5046088;28;20421;-67
2022/06/01 04:14:36;;;;;;;28.25;25.30;;;10.50;99.90;;;;;;5047736;28;20041;-67
2022/06/01 04:17:02;;;;;;;29.52;24.88;;;10.60;99.90;;;;;;5033023;28;20616;-67
2022/06/01 04:19:28;;;;;;;28.17;25.10;;;10.60;99.90;;;;;;5030454;28;20084;-67
2022/06/01 04:21:54;;;;;;;31.40;26.63;;;10.50;99.90;;;;;;5028244;28;20132;-67
2022/06/01 04:24:26;;;;;;;33.40;26.63;;;10.60;99.90;;;;;;5048132;28;20123;-67
2022/06/01 04:26:51;;;;;;;28.63;24.73;;;10.60;99.90;;;;;;5035467;28;20067;-67
2022/06/01 04:29:17;;;;;;;29.85;26.45;;;10.70;99.90;;;;;;5014553;28;20041;-67
2022/06/01 04:31:44;;;;;;;28.92;25.95;;;10.80;99.90;;;;;;5036730;28;20041;-67
2022/06/01 04:34:10;;;;;;;28.33;25.33;;;10.80;99.90;;;;;;5034398;28;20094;-67
2022/06/01 04:36:35;;;;;;;27.70;24.80;;;10.60;99.90;;;;;;5030832;28;20124;-67
2022/06/01 04:39:01;;;;;;;28.30;25.23;;;10.70;99.90;;;;;;5012961;28;20045;-67
2022/06/01 04:41:27;;;;;;;28.17;25.20;;;10.80;99.90;;;;;;5036359;28;20052;-67
2022/06/01 04:43:53;;;;;;;29.00;25.15;;;10.70;99.90;;;;;;5030255;28;20042;-67
2022/06/01 04:46:18;;;;;;;28.05;25.10;;;10.70;99.90;;;;;;5027024;28;20079;-67
2022/06/01 04:48:44;;;;;;;29.27;24.42;;;10.70;99.90;;;;;;5031122;28;20096;-67
2022/06/01 04:51:10;;;;;;;29.27;26.13;;;10.80;99.90;;;;;;5030561;28;20045;-67
2022/06/01 04:53:36;;;;;;;28.27;25.27;;;10.90;99.90;;;;;;5026028;28;20105;-67
2022/06/01 04:56:02;;;;;;;29.88;25.25;;;10.80;99.90;;;;;;5033980;28;20049;-67
2022/06/01 04:58:27;;;;;;;27.83;24.90;;;10.80;99.90;;;;;;5027109;28;20049;-67
2022/06/01 05:00:53;;;;;;;29.15;26.08;;;10.80;99.90;;;;;;5027259;28;20084;-67
2022/06/01 05:03:19;;;;;;;29.55;25.58;;;10.80;99.90;;;;;;4981797;28;20050;-67
2022/06/01 05:05:44;;;;;;;29.17;26.05;;;10.80;99.90;;;;;;5031437;28;20069;-67
2022/06/01 05:08:12;;;;;;;31.30;25.92;;;10.80;99.90;;;;;;5029696;28;20090;-67
2022/06/01 05:10:38;;;;;;;30.40;26.85;;;10.90;99.90;;;;;;5029674;28;20137;-67
2022/06/01 05:13:04;;;;;;;28.77;25.15;;;10.90;99.90;;;;;;5042981;28;20432;-67
2022/06/01 05:15:30;;;;;;;28.27;24.30;;;10.90;99.90;;;;;;5014710;28;20077;-67
2022/06/01 05:17:55;;;;;;;29.13;26.13;;;10.90;99.90;;;;;;5031666;28;20069;-67
2022/06/01 05:20:21;;;;;;;27.98;24.98;;;11.00;99.90;;;;;;5045953;28;20085;-67
2022/06/01 05:22:47;;;;;;;29.02;24.15;;;11.00;99.90;;;;;;5000800;28;20080;-67
2022/06/01 05:25:12;;;;;;;27.23;24.30;;;11.20;99.90;;;;;;5046045;28;20049;-68
2022/06/01 05:27:39;;;;;;;24.98;22.27;;;11.00;99.90;;;;;;5030966;28;20417;-66
2022/06/01 05:30:07;;;;;;;26.98;24.23;;;11.10;99.90;;;;;;5007970;28;20386;-68
2022/06/01 05:32:33;;;;;;;24.67;22.05;;;11.10;99.90;;;;;;5027129;28;20404;-68
2022/06/01 05:34:59;;;;;;;25.17;22.58;;;11.10;99.90;;;;;;5046403;28;20037;-68
2022/06/01 05:37:24;;;;;;;24.48;21.88;;;11.20;99.90;;;;;;5043491;28;20050;-68
2022/06/01 05:39:51;;;;;;;23.52;21.10;;;11.20;99.90;;;;;;5043654;28;20041;-68
2022/06/01 05:42:17;;;;;;;24.35;21.85;;;11.10;99.90;;;;;;5022926;28;20107;-67
2022/06/01 05:44:43;;;;;;;24.52;21.92;;;11.10;99.90;;;;;;5021590;28;20510;-68
2022/06/01 05:47:09;;;;;;;24.98;22.27;;;11.20;99.90;;;;;;5024446;28;20060;-68
2022/06/01 05:49:35;;;;;;;22.92;20.50;;;11.20;99.90;;;;;;5020043;28;20429;-68
2022/06/01 05:52:01;;;;;;;22.88;20.38;;;11.40;99.90;;;;;;5039858;28;20042;-67
2022/06/01 05:54:27;;;;;;;24.52;21.75;;;11.30;99.90;;;;;;5022728;28;20099;-69
2022/06/01 05:56:53;;;;;;;24.00;21.48;;;11.40;99.90;;;;;;5009181;28;20104;-69
2022/06/01 05:59:18;;;;;;;21.48;19.27;;;11.30;99.90;;;;;;5026102;28;20049;-69
2022/06/01 06:01:44;;;;;;;23.45;21.05;;;11.50;99.90;;;;;;5025450;28;20057;-68
2022/06/01 06:04:10;;;;;;;23.33;20.65;;;11.40;99.90;;;;;;5019008;28;20080;-68
2022/06/01 06:06:35;;;;;;;23.35;20.95;;;11.20;99.90;;;;;;5039803;28;20053;-67
2022/06/01 06:09:08;;;;;;;24.42;20.30;;;11.30;99.90;;;;;;5031233;28;20060;-67
2022/06/01 06:11:36;;;;;;;22.58;20.17;;;11.60;99.90;;;;;;5022661;28;20143;-67
2022/06/01 06:14:03;;;;;;;20.77;18.20;;;11.60;99.90;;;;;;5022687;28;20045;-67
2022/06/01 06:16:32;;;;;;;23.83;21.27;;;11.70;99.90;;;;;;5029501;28;20071;-67
2022/06/01 06:18:57;;;;;;;22.63;20.17;;;11.70;99.90;;;;;;5011131;28;20518;-67
2022/06/01 06:21:29;;;;;;;23.65;20.98;;;11.90;99.90;;;;;;5037430;28;20053;-67
2022/06/01 06:24:04;;;;;;;22.52;20.13;;;12.00;99.90;;;;;;5020328;28;20052;-67
2022/06/01 06:26:30;;;;;;;21.88;19.70;;;11.90;99.90;;;;;;5012789;28;20107;-66
2022/06/01 06:28:56;;;;;;;25.27;21.42;;;11.90;99.90;;;;;;5023207;28;20076;-66
2022/06/01 06:31:22;;;;;;;23.48;20.98;;;12.00;99.90;;;;;;5029420;28;20448;-66
2022/06/01 06:33:48;;;;;;;23.10;20.58;;;12.00;99.90;;;;;;5001654;28;20061;-66
2022/06/01 06:36:14;;;;;;;24.70;22.10;;;12.10;99.90;;;;;;5012558;28;20054;-67
2022/06/01 06:38:40;;;;;;;25.35;22.70;;;12.20;99.90;;;;;;5023692;28;20417;-66
2022/06/01 06:41:07;;;;;;;24.90;22.30;;;12.00;99.90;;;;;;5036397;28;20048;-70
2022/06/01 06:43:35;;;;;;;23.52;21.02;;;12.20;99.90;;;;;;5007549;28;20073;-69
2022/06/01 06:46:05;;;;;;;21.73;19.48;;;12.10;99.90;;;;;;5047727;28;20091;-70
2022/06/01 06:48:31;;;;;;;19.63;17.40;;;12.20;99.90;;;;;;5032997;28;20195;-70
2022/06/01 06:50:57;;;;;;;23.30;20.90;;;12.20;99.90;;;;;;5046916;28;20041;-70
2022/06/01 06:53:23;;;;;;;21.40;19.20;;;12.30;99.90;;;;;;5033157;28;20068;-70
2022/06/01 06:55:50;;;;;;;21.40;19.17;;;12.30;99.90;;;;;;5050276;28;20045;-70
2022/06/01 06:58:16;;;;;;;22.08;19.88;;;12.30;99.90;;;;;;5030544;28;20053;-71
2022/06/01 07:00:42;;;;;;;22.48;19.92;;;12.30;99.90;;;;;;5034640;28;20105;-70
2022/06/01 07:03:07;;;;;;;21.48;19.17;;;12.40;99.90;;;;;;5011376;28;20048;-70
2022/06/01 07:08:18;;;;;;;20.50;18.50;;;12.50;99.90;;;;;;5031170;28;20045;-70
2022/06/01 07:10:44;;;;;;;20.30;17.92;;;12.60;99.90;;;;;;5029829;28;20101;-70
2022/06/01 07:13:10;;;;;;;22.63;20.15;;;12.60;99.90;;;;;;5027756;28;20049;-70
2022/06/01 07:15:36;;;;;;;22.70;19.95;;;12.70;99.90;;;;;;5050694;28;20346;-70
2022/06/01 07:18:06;;;;;;;22.33;20.02;;;12.80;99.90;;;;;;5026748;28;20059;-71
2022/06/01 07:20:32;;;;;;;21.23;19.10;;;12.80;99.90;;;;;;5032822;28;20045;-71
2022/06/01 07:22:58;;;;;;;20.65;18.45;;;12.90;99.90;;;;;;4998410;28;20049;-71
2022/06/01 07:25:25;;;;;;;21.42;19.23;;;12.80;99.90;;;;;;5014856;28;20052;-70
2022/06/01 07:27:50;;;;;;;21.30;19.20;;;12.90;99.90;;;;;;5030925;28;20055;-70
2022/06/01 07:30:17;;;;;;;20.77;18.45;;;12.80;99.90;;;;;;5005989;28;20050;-71
2022/06/01 07:32:44;;;;;;;21.15;18.75;;;12.80;99.90;;;;;;4999097;28;20419;-71
2022/06/01 07:35:11;;;;;;;20.20;18.20;;;12.80;99.90;;;;;;5021921;28;20052;-70
2022/06/01 07:43:06;;;;;;;22.58;20.20;;;13.00;99.90;;;;;;4989091;28;20480;-70
2022/06/01 07:45:45;;;;;;;20.23;18.17;;;13.00;99.90;;;;;;5019278;28;20437;-70
2022/06/01 07:48:11;;;;;;;22.23;18.80;;;13.10;99.90;;;;;;4991392;28;20080;-71
2022/06/01 07:50:37;;;;;;;20.38;18.27;;;13.30;99.90;;;;;;5001376;28;20049;-71
2022/06/01 07:53:05;;;;;;;20.30;18.08;;;13.50;99.90;;;;;;5023895;28;20073;-72
2022/06/01 07:55:30;;;;;;;21.17;19.00;;;13.60;99.90;;;;;;5003840;28;20068;-69
2022/06/01 07:57:56;;;;;;;18.23;16.27;;;13.80;99.90;;;;;;4987320;28;20035;-74
2022/06/01 08:00:22;;;;;;;19.08;17.00;;;13.90;99.90;;;;;;4996106;28;20061;-74
2022/06/01 08:02:48;;;;;;;18.92;16.92;;;13.90;99.90;;;;;;5003368;28;20695;-72
2022/06/01 08:05:16;;;;;;;19.35;16.98;;;13.90;99.90;;;;;;5024220;28;20057;-69
2022/06/01 08:07:43;;;;;;;18.02;15.88;;;13.80;99.90;;;;;;5035583;28;20640;-74
2022/06/01 08:10:10;;;;;;;21.27;17.98;;;13.80;99.90;;;;;;5009206;28;20064;-75
2022/06/01 08:15:20;;;;;;;24.95;19.05;;;13.50;99.90;;;;;;5007897;28;20048;-74
2022/06/01 08:17:47;;;;;;;35.60;6.00;;;13.30;99.90;;;;;;5001926;28;20079;-84
2022/06/01 08:20:13;;;;;;;18.08;4.72;;;12.40;99.90;;;;;;5012805;28;20113;-81
2022/06/01 08:22:40;;;;;;;16.65;4.30;;;11.50;99.90;;;;;;4997100;28;20084;-81
2022/06/01 08:25:13;;;;;;;11.43;3.42;;;11.00;99.90;;;;;;5011584;28;20041;-82
2022/06/01 08:27:38;;;;;;;5.43;3.25;;;10.90;99.90;;;;;;5012517;28;20131;-80
2022/06/01 08:30:05;;;;;;;5.30;3.13;;;10.60;99.90;;;;;;4995517;28;20065;-81
2022/06/01 08:32:32;;;;;;;3.33;2.92;;;10.60;99.90;;;;;;5007488;28;20100;-75
2022/06/01 08:34:57;;;;;;;4.00;3.42;;;10.60;99.90;;;;;;4993258;28;20124;-70
2022/06/01 08:37:23;;;;;;;6.43;3.60;;;10.50;99.90;;;;;;5007717;28;20046;-72
2022/06/01 08:39:49;;;;;;;3.88;3.45;;;10.60;99.90;;;;;;4992873;28;20072;-77
2022/06/01 08:42:19;;;;;;;3.42;3.10;;;10.70;99.90;;;;;;5006910;28;20046;-74
2022/06/01 08:44:48;;;;;;;4.87;2.83;;;10.60;99.90;;;;;;5008221;28;20053;-79
2022/06/01 08:47:28;;;;;;;4.00;3.25;;;10.60;99.90;;;;;;5015598;28;20050;-79
2022/06/01 08:49:59;;;;;;;4.28;2.72;;;10.40;99.90;;;;;;5005661;28;20045;-79
2022/06/01 08:52:26;;;;;;;4.35;3.03;;;10.40;99.90;;;;;;4989237;28;20041;-79
2022/06/01 08:54:51;;;;;;;3.80;3.13;;;10.40;99.90;;;;;;5000612;28;20049;-79
2022/06/01 08:57:29;;;;;;;3.67;3.20;;;10.40;99.90;;;;;;5016938;28;20064;-81
2022/06/01 09:00:07;;;;;;;4.35;3.05;;;10.50;99.90;;;;;;5003795;28;20068;-79
2022/06/01 09:02:38;;;;;;;4.55;2.90;;;10.60;99.90;;;;;;5003425;28;20057;-79
2022/06/01 09:05:30;;;;;;;2.55;2.35;;;10.70;99.90;;;;;;5006686;28;20057;-82
2022/06/01 09:08:24;;;;;;;2.88;2.30;;;10.70;99.90;;;;;;5031338;28;20061;-78
2022/06/01 09:11:13;;;;;;;2.78;2.35;;;10.60;99.90;;;;;;4971312;28;20054;-78
2022/06/01 09:13:58;;;;;;;2.15;1.90;;;10.70;99.90;;;;;;4995826;28;20050;-78
2022/06/01 09:16:34;;;;;;;2.25;2.05;;;10.70;99.90;;;;;;5011694;28;20088;-78
2022/06/01 09:19:01;;;;;;;2.40;2.20;;;10.60;99.90;;;;;;4989723;28;20076;-78
2022/06/01 09:24:27;;;;;;;2.55;2.22;;;10.70;99.90;;;;;;4998454;28;20269;-79
2022/06/01 09:26:55;;;;;;;2.50;2.30;;;10.80;99.90;;;;;;5007214;28;20274;-79
2022/06/01 09:29:24;;;;;;;2.30;2.10;;;11.00;99.90;;;;;;4997882;28;20401;-78
2022/06/01 09:31:56;;;;;;;2.55;2.08;;;11.20;99.90;;;;;;4993394;28;20042;-79
2022/06/01 09:34:25;;;;;;;2.50;2.10;;;11.10;99.90;;;;;;4999896;28;20080;-79
2022/06/01 09:37:28;;;;;;;2.60;2.30;;;11.30;99.90;;;;;;4998588;28;20134;-78
2022/06/01 09:40:00;;;;;;;2.25;2.05;;;11.40;99.90;;;;;;4972382;28;20059;-74
2022/06/01 09:42:37;;;;;;;2.08;1.88;;;11.30;99.90;;;;;;4962804;28;20066;-75
2022/06/01 09:45:26;;;;;;;2.30;2.10;;;11.40;99.90;;;;;;4969509;28;20074;-76
2022/06/01 09:47:53;;;;;;;2.30;2.13;;;11.50;99.90;;;;;;4994243;28;20054;-76
2022/06/01 09:50:31;;;;;;;3.55;2.40;;;11.60;99.90;;;;;;4954113;28;20058;-76
2022/06/01 09:53:21;;;;;;;2.60;2.40;;;11.70;99.90;;;;;;4976352;28;20050;-75
2022/06/01 09:55:58;;;;;;;3.20;2.90;;;11.90;99.90;;;;;;4972491;28;20058;-75
2022/06/01 10:07:05;;;;;;;4.22;3.17;;;12.30;99.90;;;;;;4973397;28;20052;-74
2022/06/01 10:09:33;;;;;;;4.85;3.97;;;12.30;99.90;;;;;;4985219;28;20501;-78
2022/06/01 10:12:18;;;;;;;6.40;5.57;;;12.40;99.90;;;;;;4949631;28;20140;-78
2022/06/01 10:14:54;;;;;;;7.20;6.50;;;12.50;99.90;;;;;;4961065;28;20047;-78
2022/06/01 10:17:27;;;;;;;7.50;6.65;;;12.50;99.90;;;;;;4995756;28;20939;-76
2022/06/01 10:20:00;;;;;;;6.45;5.80;;;12.50;99.90;;;;;;5015404;28;20098;-78
2022/06/01 10:22:31;;;;;;;6.22;5.63;;;12.60;99.90;;;;;;4992993;28;20050;-77
2022/06/01 10:25:16;;;;;;;6.15;5.55;;;13.00;99.90;;;;;;4990695;28;20125;-78
2022/06/01 10:27:54;;;;;;;6.38;5.72;;;13.10;99.90;;;;;;4999751;28;20057;-75
2022/06/01 10:30:27;;;;;;;6.35;5.72;;;13.20;99.90;;;;;;4977563;28;20049;-76
2022/06/01 10:33:04;;;;;;;7.47;5.40;;;13.30;99.90;;;;;;5003280;28;20324;-75
2022/06/01 10:35:39;;;;;;;6.72;6.07;;;13.30;99.90;;;;;;4994109;28;20049;-76
2022/06/01 10:38:20;;;;;;;7.22;6.53;;;13.40;99.90;;;;;;5031888;28;20048;-74
2022/06/01 10:40:48;;;;;;;6.30;5.72;;;13.20;99.90;;;;;;5020949;28;20123;-73
2022/06/01 10:43:31;;;;;;;6.00;5.40;;;13.70;99.90;;;;;;5017317;28;20045;-76
2022/06/01 10:46:16;;;;;;;6.03;5.15;;;13.50;99.90;;;;;;5003517;28;20046;-77
2022/06/01 10:48:52;;;;;;;5.80;5.28;;;13.40;99.90;;;;;;4979782;28;20534;-75
2022/06/01 10:51:22;;;;;;;6.80;4.88;;;13.40;99.90;;;;;;5027184;28;20049;-75
2022/06/01 10:54:19;;;;;;;7.88;6.38;;;13.50;99.90;;;;;;4987950;28;20109;-75
2022/06/01 10:56:46;;;;;;;7.70;5.07;;;13.40;99.90;;;;;;5001695;28;20077;-75
2022/06/01 10:59:16;;;;;;;8.75;6.60;;;13.50;99.90;;;;;;4998887;28;20045;-75
2022/06/01 11:02:03;;;;;;;7.30;5.35;;;13.40;99.90;;;;;;5055627;28;20048;-75
2022/06/01 11:04:59;;;;;;;5.75;5.15;;;13.20;99.90;;;;;;5055993;28;20075;-74
2022/06/01 11:07:47;;;;;;;5.40;4.90;;;13.30;99.90;;;;;;5048742;28;20044;-74
2022/06/01 11:10:27;;;;;;;5.40;4.90;;;13.30;99.90;;;;;;5059134;28;20045;-75
2022/06/01 11:12:59;;;;;;;6.13;5.53;;;13.40;99.90;;;;;;5032850;28;20059;-74
2022/06/01 11:15:39;;;;;;;5.97;5.38;;;13.40;99.90;;;;;;5057720;28;20080;-74
2022/06/01 11:18:42;;;;;;;5.50;4.90;;;13.60;99.90;;;;;;5040515;28;20052;-74
2022/06/01 11:21:23;;;;;;;6.15;5.57;;;13.50;99.90;;;;;;5013309;28;20045;-74
2022/06/01 11:24:27;;;;;;;5.55;5.05;;;13.40;99.90;;;;;;5013997;28;20089;-75
2022/06/01 11:27:02;;;;;;;7.07;6.38;;;13.40;99.90;;;;;;5020714;28;20062;-75
2022/06/01 11:30:02;;;;;;;5.05;4.55;;;13.40;99.90;;;;;;5037509;28;20469;-74
2022/06/01 11:32:39;;;;;;;5.88;5.35;;;13.10;99.90;;;;;;5036283;28;20099;-75
2022/06/01 11:35:28;;;;;;;5.78;5.18;;;12.80;99.90;;;;;;5019967;28;20048;-74
2022/06/01 11:37:54;;;;;;;4.75;4.18;;;12.50;99.90;;;;;;5023875;28;20105;-75
2022/06/01 11:40:40;;;;;;;4.82;4.32;;;12.20;99.90;;;;;;5007808;28;20465;-74
2022/06/01 11:43:34;;;;;;;6.57;4.25;;;12.00;99.90;;;;;;5005729;28;20417;-74
2022/06/01 11:46:08;;;;;;;7.53;4.10;;;12.00;99.90;;;;;;5021407;28;20049;-74
2022/06/01 11:48:37;;;;;;;5.28;4.40;;;12.10;99.90;;;;;;5018563;28;20409;-74
2022/06/01 11:51:11;;;;;;;5.78;4.80;;;12.20;99.90;;;;;;5015796;28;20060;-74
2022/06/01 11:53:55;;;;;;;5.40;4.50;;;12.20;99.90;;;;;;5003934;28;20041;-74
2022/06/01 11:56:33;;;;;;;5.47;4.97;;;12.30;99.90;;;;;;4983297;28;20465;-74
2022/06/01 11:59:05;;;;;;;4.78;4.30;;;12.40;99.90;;;;;;4992787;28;20041;-75
2022/06/01 12:01:36;;;;;;;5.40;4.90;;;12.60;99.90;;;;;;5027689;28;20033;-75
2022/06/01 12:04:37;;;;;;;4.25;3.20;;;12.70;99.90;;;;;;5021845;28;20079;-74
2022/06/01 12:07:06;;;;;;;2.38;2.10;;;12.90;99.90;;;;;;5001765;28;20073;-74
2022/06/01 12:09:44;;;;;;;1.80;1.70;;;13.00;99.90;;;;;;5010619;28;20054;-74
2022/06/01 12:12:32;;;;;;;2.25;1.63;;;12.90;99.90;;;;;;5019643;28;20080;-74
2022/06/01 12:15:21;;;;;;;1.40;1.30;;;13.00;99.90;;;;;;5033121;28;20049;-75
2022/06/01 12:18:12;;;;;;;1.70;1.60;;;13.20;99.90;;;;;;5026068;28;20723;-75
2022/06/01 12:20:38;;;;;;;1.45;1.35;;;13.10;99.90;;;;;;5039116;28;20061;-74
2022/06/01 12:28:56;;;;;;;1.60;1.48;;;13.20;99.90;;;;;;5032387;28;20041;-75
2022/06/01 12:31:28;;;;;;;1.95;1.63;;;13.40;99.90;;;;;;5062399;28;20080;-74
2022/06/01 12:34:03;;;;;;;1.50;1.40;;;13.60;99.90;;;;;;5078793;28;20067;-80
2022/06/01 12:36:58;;;;;;;1.55;1.45;;;13.50;99.90;;;;;;5026250;28;20080;-75
2022/06/01 12:39:29;;;;;;;3.78;1.60;;;13.70;99.90;;;;;;5029532;28;20054;-71
2022/06/01 12:42:04;;;;;;;2.42;1.88;;;13.90;99.90;;;;;;5034443;28;20041;-74
2022/06/01 12:44:32;;;;;;;1.85;1.70;;;14.10;99.90;;;;;;5037470;28;20048;-74
2022/06/01 12:46:59;;;;;;;2.65;2.45;;;14.30;99.90;;;;;;5052752;28;20536;-75
2022/06/01 12:49:36;;;;;;;2.88;2.10;;;14.50;99.90;;;;;;5052387;28;20058;-75
2022/06/01 12:52:09;;;;;;;2.42;2.22;;;14.50;99.90;;;;;;5051599;28;20087;-74
2022/06/01 12:54:50;;;;;;;3.58;2.28;;;14.60;99.90;;;;;;5066575;28;20049;-73
2022/06/01 12:57:31;;;;;;;3.45;2.72;;;14.60;99.90;;;;;;5074160;28;20148;-74
2022/06/01 13:00:11;;;;;;;2.67;2.35;;;14.60;99.90;;;;;;5038866;28;20041;-73
2022/06/01 13:02:39;;;;;;;2.83;2.58;;;14.70;99.90;;;;;;5053024;28;20045;-73
2022/06/01 13:05:08;;;;;;;3.72;2.75;;;15.00;99.90;;;;;;5042808;28;20048;-73
2022/06/01 13:07:44;;;;;;;3.47;2.70;;;15.20;99.90;;;;;;5049329;28;20045;-73
2022/06/01 13:10:22;;;;;;;2.65;2.35;;;15.70;99.90;;;;;;5037880;28;20719;-73
2022/06/01 13:12:48;;;;;;;3.67;2.40;;;15.70;99.90;;;;;;5023469;28;20069;-73
2022/06/01 13:15:24;;;;;;;2.92;2.63;;;15.80;99.90;;;;;;5053280;28;20041;-73
2022/06/01 13:17:52;;;;;;;3.85;2.25;;;15.90;99.90;;;;;;5064176;28;20045;-73
2022/06/01 13:20:23;;;;;;;2.40;2.20;;;16.00;99.90;;;;;;5038936;28;20059;-73
2022/06/01 13:22:50;;;;;;;2.60;2.38;;;16.10;99.90;;;;;;5021774;28;20084;-73
2022/06/01 13:25:30;;;;;;;2.25;1.85;;;15.80;99.90;;;;;;5029790;28;20151;-73
2022/06/01 13:27:56;;;;;;;3.42;2.00;;;15.40;99.90;;;;;;5051971;28;20049;-73
2022/06/01 13:30:22;;;;;;;1.60;1.50;;;15.00;99.90;;;;;;5043644;28;20055;-74